createdAt,value
2023-02-18T00:04:27.922Z,9.81
2023-02-18T00:09:31.107Z,9.79
2023-02-18T00:14:34.230Z,9.80
2023-02-18T00:19:37.412Z,9.78
2023-02-18T00:24:41.036Z,9.78
2023-02-18T00:29:44.173Z,9.75
2023-02-18T00:34:47.298Z,9.71
2023-02-18T00:39:50.392Z,9.71
2023-02-18T00:44:53.885Z,9.71
2023-02-18T00:49:57.738Z,9.68
2023-02-18T00:55:01.472Z,9.67
2023-02-18T01:00:08.681Z,9.65
2023-02-18T01:05:11.934Z,9.63
2023-02-18T01:10:15.029Z,9.59
2023-02-18T01:15:18.786Z,9.56
2023-02-18T01:20:22.144Z,9.56
2023-02-18T01:25:25.216Z,9.56
2023-02-18T01:30:28.431Z,9.56
2023-02-18T01:35:31.529Z,9.53
2023-02-18T01:40:34.995Z,9.56
2023-02-18T01:45:47.141Z,9.58
2023-02-18T01:51:27.420Z,9.57
2023-02-18T01:56:51.481Z,9.57
2023-02-18T02:01:55.700Z,9.56
2023-02-18T02:07:00.803Z,9.55
2023-02-18T02:12:25.242Z,9.59
2023-02-18T02:17:34.947Z,9.58
2023-02-18T02:22:47.321Z,9.63
2023-02-18T02:28:30.959Z,9.62
2023-02-18T02:33:55.738Z,9.59
2023-02-18T02:39:13.297Z,9.60
2023-02-18T02:44:27.215Z,9.59
2023-02-18T02:49:53.886Z,9.62
2023-02-18T02:54:57.209Z,9.65
2023-02-18T03:00:10.199Z,9.66
2023-02-18T03:06:08.158Z,9.77
2023-02-18T03:11:15.009Z,9.80
2023-02-18T03:16:18.988Z,9.81
2023-02-18T03:21:33.334Z,9.82
2023-02-18T03:26:47.239Z,9.82
2023-02-18T03:31:57.528Z,9.86
2023-02-18T03:37:02.825Z,9.87
2023-02-18T03:42:07.202Z,9.87
2023-02-18T03:47:10.465Z,9.87
2023-02-18T03:52:13.640Z,9.78
2023-02-18T03:57:16.916Z,9.78
2023-02-18T04:02:20.027Z,9.76
2023-02-18T04:07:23.235Z,9.70
2023-02-18T04:12:26.404Z,9.68
2023-02-18T04:17:29.623Z,9.60
2023-02-18T04:22:32.760Z,9.56
2023-02-18T04:27:38.989Z,9.53
2023-02-18T04:32:42.927Z,9.54
2023-02-18T04:37:46.266Z,9.50
2023-02-18T04:42:49.414Z,9.51
2023-02-18T04:47:53.152Z,9.50
2023-02-18T04:52:56.360Z,9.63
2023-02-18T04:57:59.481Z,9.72
2023-02-18T05:03:02.596Z,9.83
2023-02-18T05:08:05.942Z,9.94
2023-02-18T05:13:09.092Z,10.10
2023-02-18T05:18:12.767Z,10.27
2023-02-18T05:23:15.885Z,10.40
2023-02-18T05:28:19.192Z,10.47
2023-02-18T05:33:22.532Z,10.51
2023-02-18T05:38:25.844Z,10.58
2023-02-18T05:43:29.266Z,10.62
2023-02-18T05:48:32.819Z,10.89
2023-02-18T05:53:35.941Z,11.18
2023-02-18T05:58:39.201Z,11.40
2023-02-18T06:03:42.231Z,11.48
2023-02-18T06:08:45.229Z,11.59
2023-02-18T06:13:48.416Z,11.71
2023-02-18T06:18:51.588Z,11.88
2023-02-18T06:23:54.771Z,12.26
2023-02-18T06:28:58.329Z,12.42
2023-02-18T06:34:01.620Z,12.25
2023-02-18T06:39:06.114Z,12.53
2023-02-18T06:44:09.483Z,12.36
2023-02-18T06:49:12.847Z,12.24
2023-02-18T06:54:15.754Z,12.26
2023-02-18T06:59:18.804Z,12.68
2023-02-18T07:04:22.099Z,13.22
2023-02-18T07:09:25.268Z,12.97
2023-02-18T07:14:28.543Z,12.76
2023-02-18T07:19:31.815Z,12.66
2023-02-18T07:24:34.940Z,12.66
2023-02-18T07:29:38.177Z,12.72
2023-02-18T07:34:41.453Z,12.83
2023-02-18T07:39:47.733Z,12.98
2023-02-18T07:44:51.280Z,13.28
2023-02-18T07:49:54.404Z,13.85
2023-02-18T07:54:57.709Z,13.93
2023-02-18T08:00:00.795Z,13.71
2023-02-18T08:05:04.318Z,13.63
2023-02-18T08:10:08.124Z,13.62
2023-02-18T08:15:11.484Z,13.61
2023-02-18T08:20:14.640Z,13.62
2023-02-18T08:25:28.977Z,13.65
2023-02-18T08:30:33.019Z,13.73
2023-02-18T08:35:36.202Z,13.73
2023-02-18T08:40:39.712Z,13.79
2023-02-18T08:45:44.544Z,13.92
2023-02-18T08:50:48.545Z,13.97
2023-02-18T08:55:51.927Z,13.99
2023-02-18T09:00:55.287Z,13.94
2023-02-18T09:05:59.908Z,13.93
2023-02-18T09:11:04.439Z,14.01
2023-02-18T09:16:14.902Z,14.05
2023-02-18T09:21:18.376Z,14.11
2023-02-18T09:26:22.804Z,14.17
2023-02-18T09:31:28.132Z,14.22
2023-02-18T09:36:34.578Z,14.31
2023-02-18T09:41:48.298Z,14.37
2023-02-18T09:47:06.857Z,14.43
2023-02-18T09:52:13.137Z,14.45
2023-02-18T09:57:27.823Z,14.51
2023-02-18T10:02:32.868Z,14.56
2023-02-18T10:07:39.028Z,14.58
2023-02-18T10:12:43.551Z,14.56
2023-02-18T10:17:48.697Z,14.59
